sensor_id;sensor_type;location;lat;lon;timestamp;temperature;humidity
19496;DHT22;9888;48.606;9.630;2023-04-06T00:01:03;-4.00;99.90
19496;DHT22;9888;48.606;9.630;2023-04-06T00:03:39;-4.00;99.90
19496;DHT22;9888;48.606;9.630;2023-04-06T00:06:07;-4.00;99.90
19496;DHT22;9888;48.606;9.630;2023-04-06T00:08:34;-4.00;99.90
19496;DHT22;9888;48.606;9.630;2023-04-06T00:11:01;-4.00;99.90
19496;DHT22;9888;48.606;9.630;2023-04-06T00:13:29;-4.10;99.90
19496;DHT22;9888;48.606;9.630;2023-04-06T00:16:09;-4.10;99.90
19496;DHT22;9888;48.606;9.630;2023-04-06T00:18:38;-4.00;99.90
19496;DHT22;9888;48.606;9.630;2023-04-06T00:27:52;-4.10;99.90
19496;DHT22;9888;48.606;9.630;2023-04-06T00:30:20;-4.00;99.90
19496;DHT22;9888;48.606;9.630;2023-04-06T00:32:48;-4.00;99.90
19496;DHT22;9888;48.606;9.630;2023-04-06T00:35:19;-4.00;99.90
19496;DHT22;9888;48.606;9.630;2023-04-06T00:40:50;-4.10;99.90
19496;DHT22;9888;48.606;9.630;2023-04-06T00:43:21;-4.10;99.90
19496;DHT22;9888;48.606;9.630;2023-04-06T00:45:53;-4.10;99.90
19496;DHT22;9888;48.606;9.630;2023-04-06T00:51:43;-4.10;99.90
19496;DHT22;9888;48.606;9.630;2023-04-06T00:54:29;-4.20;99.90
19496;DHT22;9888;48.606;9.630;2023-04-06T01:00:20;-4.20;99.90
19496;DHT22;9888;48.606;9.630;2023-04-06T01:02:49;-4.10;99.90
19496;DHT22;9888;48.606;9.630;2023-04-06T01:05:20;-4.20;99.90
19496;DHT22;9888;48.606;9.630;2023-04-06T01:08:01;-4.20;99.90
19496;DHT22;9888;48.606;9.630;2023-04-06T01:11:13;-4.30;99.90
19496;DHT22;9888;48.606;9.630;2023-04-06T01:13:41;-4.30;99.90
19496;DHT22;9888;48.606;9.630;2023-04-06T01:16:08;-4.40;99.90
19496;DHT22;9888;48.606;9.630;2023-04-06T01:18:38;-4.40;99.90
19496;DHT22;9888;48.606;9.630;2023-04-06T01:24:21;-4.40;99.90
19496;DHT22;9888;48.606;9.630;2023-04-06T01:26:53;-4.30;99.90
19496;DHT22;9888;48.606;9.630;2023-04-06T01:36:09;-4.30;99.90
19496;DHT22;9888;48.606;9.630;2023-04-06T01:42:09;-4.30;99.90
19496;DHT22;9888;48.606;9.630;2023-04-06T01:44:45;-4.40;99.90
19496;DHT22;9888;48.606;9.630;2023-04-06T01:47:15;-4.40;99.90
19496;DHT22;9888;48.606;9.630;2023-04-06T01:49:43;-4.40;99.90
19496;DHT22;9888;48.606;9.630;2023-04-06T01:52:11;-4.40;99.90
19496;DHT22;9888;48.606;9.630;2023-04-06T01:54:39;-4.30;99.90
19496;DHT22;9888;48.606;9.630;2023-04-06T01:57:09;-4.40;99.90
19496;DHT22;9888;48.606;9.630;2023-04-06T01:59:36;-4.40;99.90
19496;DHT22;9888;48.606;9.630;2023-04-06T02:02:04;-4.40;99.90
19496;DHT22;9888;48.606;9.630;2023-04-06T02:04:35;-4.40;99.90
19496;DHT22;9888;48.606;9.630;2023-04-06T02:07:03;-4.50;99.90
19496;DHT22;9888;48.606;9.630;2023-04-06T02:09:31;-4.40;99.90
19496;DHT22;9888;48.606;9.630;2023-04-06T02:11:58;-4.40;99.90
19496;DHT22;9888;48.606;9.630;2023-04-06T02:14:27;-4.40;99.90
19496;DHT22;9888;48.606;9.630;2023-04-06T02:16:54;-4.40;99.90
19496;DHT22;9888;48.606;9.630;2023-04-06T02:19:23;-4.40;99.90
19496;DHT22;9888;48.606;9.630;2023-04-06T02:21:51;-4.50;99.90
19496;DHT22;9888;48.606;9.630;2023-04-06T02:24:19;-4.50;99.90
19496;DHT22;9888;48.606;9.630;2023-04-06T02:26:46;-4.60;99.90
19496;DHT22;9888;48.606;9.630;2023-04-06T02:29:14;-4.60;99.90
19496;DHT22;9888;48.606;9.630;2023-04-06T02:31:43;-4.60;99.90
19496;DHT22;9888;48.606;9.630;2023-04-06T02:34:11;-4.60;99.90
19496;DHT22;9888;48.606;9.630;2023-04-06T02:36:52;-4.60;99.90
19496;DHT22;9888;48.606;9.630;2023-04-06T02:39:26;-4.60;99.90
19496;DHT22;9888;48.606;9.630;2023-04-06T02:41:55;-4.60;99.90
19496;DHT22;9888;48.606;9.630;2023-04-06T02:51:00;-4.70;99.90
19496;DHT22;9888;48.606;9.630;2023-04-06T03:00:00;-4.80;99.90
19496;DHT22;9888;48.606;9.630;2023-04-06T03:02:50;-4.90;99.90
19496;DHT22;9888;48.606;9.630;2023-04-06T03:05:34;-4.90;99.90
19496;DHT22;9888;48.606;9.630;2023-04-06T03:08:21;-4.90;99.90
19496;DHT22;9888;48.606;9.630;2023-04-06T03:10:51;-4.90;99.90
19496;DHT22;9888;48.606;9.630;2023-04-06T03:20:21;-4.90;99.90
19496;DHT22;9888;48.606;9.630;2023-04-06T03:29:44;-5.00;99.90
19496;DHT22;9888;48.606;9.630;2023-04-06T03:32:42;-5.00;99.90
19496;DHT22;9888;48.606;9.630;2023-04-06T03:44:54;-5.00;99.90
19496;DHT22;9888;48.606;9.630;2023-04-06T03:47:23;-4.90;99.90
19496;DHT22;9888;48.606;9.630;2023-04-06T03:50:22;-4.90;99.90
19496;DHT22;9888;48.606;9.630;2023-04-06T03:52:51;-5.00;99.90
19496;DHT22;9888;48.606;9.630;2023-04-06T03:55:20;-5.00;99.90
19496;DHT22;9888;48.606;9.630;2023-04-06T03:57:48;-5.10;99.90
19496;DHT22;9888;48.606;9.630;2023-04-06T04:00:17;-5.00;99.90
19496;DHT22;9888;48.606;9.630;2023-04-06T04:02:47;-5.10;99.90
19496;DHT22;9888;48.606;9.630;2023-04-06T04:05:23;-5.00;99.90
19496;DHT22;9888;48.606;9.630;2023-04-06T04:08:04;-5.10;99.90
19496;DHT22;9888;48.606;9.630;2023-04-06T04:23:56;-5.20;99.90
19496;DHT22;9888;48.606;9.630;2023-04-06T04:27:19;-5.20;99.90
19496;DHT22;9888;48.606;9.630;2023-04-06T04:29:52;-5.20;99.90
19496;DHT22;9888;48.606;9.630;2023-04-06T04:32:55;-5.30;99.90
19496;DHT22;9888;48.606;9.630;2023-04-06T04:42:30;-5.30;99.90
19496;DHT22;9888;48.606;9.630;2023-04-06T04:45:02;-5.30;99.90
19496;DHT22;9888;48.606;9.630;2023-04-06T04:50:59;-5.20;99.90
19496;DHT22;9888;48.606;9.630;2023-04-06T04:53:26;-5.20;99.90
19496;DHT22;9888;48.606;9.630;2023-04-06T04:56:04;-5.10;99.90
19496;DHT22;9888;48.606;9.630;2023-04-06T05:02:03;-5.10;99.90
19496;DHT22;9888;48.606;9.630;2023-04-06T05:05:04;-5.10;99.90
19496;DHT22;9888;48.606;9.630;2023-04-06T05:10:58;-5.00;99.90
19496;DHT22;9888;48.606;9.630;2023-04-06T05:14:13;-4.90;99.90
19496;DHT22;9888;48.606;9.630;2023-04-06T05:20:46;-4.80;99.90
19496;DHT22;9888;48.606;9.630;2023-04-06T05:23:14;-4.70;99.90
19496;DHT22;9888;48.606;9.630;2023-04-06T05:25:43;-4.70;99.90
19496;DHT22;9888;48.606;9.630;2023-04-06T05:28:20;-4.60;99.90
19496;DHT22;9888;48.606;9.630;2023-04-06T05:30:50;-4.60;99.90
19496;DHT22;9888;48.606;9.630;2023-04-06T05:33:23;-4.50;99.90
19496;DHT22;9888;48.606;9.630;2023-04-06T05:35:55;-4.40;99.90
19496;DHT22;9888;48.606;9.630;2023-04-06T05:38:47;-4.20;99.90
19496;DHT22;9888;48.606;9.630;2023-04-06T05:44:43;-3.90;99.90
19496;DHT22;9888;48.606;9.630;2023-04-06T05:47:10;-3.80;99.90
19496;DHT22;9888;48.606;9.630;2023-04-06T05:49:38;-3.50;99.90
19496;DHT22;9888;48.606;9.630;2023-04-06T05:55:29;-3.10;99.90
19496;DHT22;9888;48.606;9.630;2023-04-06T05:57:58;-2.90;99.90
19496;DHT22;9888;48.606;9.630;2023-04-06T06:00:25;-2.70;99.90
19496;DHT22;9888;48.606;9.630;2023-04-06T06:02:53;-2.60;99.90
19496;DHT22;9888;48.606;9.630;2023-04-06T06:05:20;-2.40;99.90
19496;DHT22;9888;48.606;9.630;2023-04-06T06:07:47;-2.30;99.90
19496;DHT22;9888;48.606;9.630;2023-04-06T06:10:14;-2.20;99.90
19496;DHT22;9888;48.606;9.630;2023-04-06T06:12:42;-2.00;99.90
19496;DHT22;9888;48.606;9.630;2023-04-06T06:15:09;-1.90;99.90
19496;DHT22;9888;48.606;9.630;2023-04-06T06:17:36;-1.70;99.90
19496;DHT22;9888;48.606;9.630;2023-04-06T06:20:07;-1.50;99.90
19496;DHT22;9888;48.606;9.630;2023-04-06T06:22:35;-1.40;99.90
19496;DHT22;9888;48.606;9.630;2023-04-06T06:25:03;-1.20;99.90
19496;DHT22;9888;48.606;9.630;2023-04-06T06:27:29;-1.00;99.90
19496;DHT22;9888;48.606;9.630;2023-04-06T06:29:56;-0.80;99.90
19496;DHT22;9888;48.606;9.630;2023-04-06T06:32:24;-0.70;99.90
19496;DHT22;9888;48.606;9.630;2023-04-06T06:34:51;-0.50;99.90
19496;DHT22;9888;48.606;9.630;2023-04-06T06:37:18;-0.40;99.90
19496;DHT22;9888;48.606;9.630;2023-04-06T06:39:45;-0.20;99.90
19496;DHT22;9888;48.606;9.630;2023-04-06T06:42:12;0.00;99.90
19496;DHT22;9888;48.606;9.630;2023-04-06T06:44:39;0.10;99.90
19496;DHT22;9888;48.606;9.630;2023-04-06T06:47:06;0.30;99.90
19496;DHT22;9888;48.606;9.630;2023-04-06T06:49:34;0.50;99.90
19496;DHT22;9888;48.606;9.630;2023-04-06T06:52:01;0.70;99.90
19496;DHT22;9888;48.606;9.630;2023-04-06T06:54:30;1.00;99.90
19496;DHT22;9888;48.606;9.630;2023-04-06T06:56:57;1.20;99.90
19496;DHT22;9888;48.606;9.630;2023-04-06T06:59:25;1.50;99.90
19496;DHT22;9888;48.606;9.630;2023-04-06T07:01:51;1.70;99.90
19496;DHT22;9888;48.606;9.630;2023-04-06T07:04:18;1.90;99.90
19496;DHT22;9888;48.606;9.630;2023-04-06T07:06:45;2.10;99.90
19496;DHT22;9888;48.606;9.630;2023-04-06T07:09:12;2.30;99.90
19496;DHT22;9888;48.606;9.630;2023-04-06T07:11:40;2.50;99.90
19496;DHT22;9888;48.606;9.630;2023-04-06T07:14:08;2.80;99.90
19496;DHT22;9888;48.606;9.630;2023-04-06T07:16:35;3.10;99.90
19496;DHT22;9888;48.606;9.630;2023-04-06T07:19:02;3.40;99.90
19496;DHT22;9888;48.606;9.630;2023-04-06T07:21:31;3.70;99.90
19496;DHT22;9888;48.606;9.630;2023-04-06T07:23:59;4.00;99.90
19496;DHT22;9888;48.606;9.630;2023-04-06T07:26:25;4.20;99.90
19496;DHT22;9888;48.606;9.630;2023-04-06T07:28:54;4.50;99.90
19496;DHT22;9888;48.606;9.630;2023-04-06T07:31:21;4.80;99.90
19496;DHT22;9888;48.606;9.630;2023-04-06T07:33:55;5.10;99.90
19496;DHT22;9888;48.606;9.630;2023-04-06T07:36:25;5.30;99.90
19496;DHT22;9888;48.606;9.630;2023-04-06T07:38:52;5.60;99.90
19496;DHT22;9888;48.606;9.630;2023-04-06T07:41:20;5.90;99.90
19496;DHT22;9888;48.606;9.630;2023-04-06T07:43:47;6.30;99.90
19496;DHT22;9888;48.606;9.630;2023-04-06T07:46:15;6.60;99.90
19496;DHT22;9888;48.606;9.630;2023-04-06T07:48:43;7.00;99.90
19496;DHT22;9888;48.606;9.630;2023-04-06T07:51:10;7.20;99.90
19496;DHT22;9888;48.606;9.630;2023-04-06T07:53:40;7.30;99.90
19496;DHT22;9888;48.606;9.630;2023-04-06T07:56:08;7.30;99.90
19496;DHT22;9888;48.606;9.630;2023-04-06T07:58:41;7.40;99.90
19496;DHT22;9888;48.606;9.630;2023-04-06T08:01:10;7.50;99.90
19496;DHT22;9888;48.606;9.630;2023-04-06T08:03:39;7.50;99.90
19496;DHT22;9888;48.606;9.630;2023-04-06T08:06:08;7.40;99.90
19496;DHT22;9888;48.606;9.630;2023-04-06T08:08:36;7.30;99.90
19496;DHT22;9888;48.606;9.630;2023-04-06T08:11:05;7.10;99.90
19496;DHT22;9888;48.606;9.630;2023-04-06T08:13:33;7.20;99.90
19496;DHT22;9888;48.606;9.630;2023-04-06T08:16:05;7.60;99.90
19496;DHT22;9888;48.606;9.630;2023-04-06T08:18:35;8.00;99.90
19496;DHT22;9888;48.606;9.630;2023-04-06T08:21:08;8.20;99.90
19496;DHT22;9888;48.606;9.630;2023-04-06T08:23:37;8.30;99.90
19496;DHT22;9888;48.606;9.630;2023-04-06T08:26:05;8.20;99.90
19496;DHT22;9888;48.606;9.630;2023-04-06T08:28:32;8.30;99.90
19496;DHT22;9888;48.606;9.630;2023-04-06T08:31:04;8.50;99.90
19496;DHT22;9888;48.606;9.630;2023-04-06T08:33:32;8.70;99.90
19496;DHT22;9888;48.606;9.630;2023-04-06T08:36:13;9.00;99.90
19496;DHT22;9888;48.606;9.630;2023-04-06T08:38:42;9.30;99.90
19496;DHT22;9888;48.606;9.630;2023-04-06T08:41:14;9.70;99.90
19496;DHT22;9888;48.606;9.630;2023-04-06T08:43:49;10.50;99.90
19496;DHT22;9888;48.606;9.630;2023-04-06T08:46:17;11.30;99.90
19496;DHT22;9888;48.606;9.630;2023-04-06T08:48:45;12.10;99.90
19496;DHT22;9888;48.606;9.630;2023-04-06T08:51:18;12.80;98.30
19496;DHT22;9888;48.606;9.630;2023-04-06T08:53:48;13.10;98.50
19496;DHT22;9888;48.606;9.630;2023-04-06T08:56:23;12.50;94.80
19496;DHT22;9888;48.606;9.630;2023-04-06T08:58:52;12.60;94.20
19496;DHT22;9888;48.606;9.630;2023-04-06T09:01:27;13.00;94.40
19496;DHT22;9888;48.606;9.630;2023-04-06T09:03:59;14.30;95.30
19496;DHT22;9888;48.606;9.630;2023-04-06T09:06:28;16.40;96.00
19496;DHT22;9888;48.606;9.630;2023-04-06T09:09:01;16.80;92.60
19496;DHT22;9888;48.606;9.630;2023-04-06T09:11:47;18.10;91.50
19496;DHT22;9888;48.606;9.630;2023-04-06T09:14:36;17.00;86.30
19496;DHT22;9888;48.606;9.630;2023-04-06T09:17:06;15.60;90.50
19496;DHT22;9888;48.606;9.630;2023-04-06T09:19:44;14.40;89.80
19496;DHT22;9888;48.606;9.630;2023-04-06T09:25:25;13.10;90.70
19496;DHT22;9888;48.606;9.630;2023-04-06T09:28:14;14.90;85.80
19496;DHT22;9888;48.606;9.630;2023-04-06T09:30:49;16.10;87.10
19496;DHT22;9888;48.606;9.630;2023-04-06T09:33:28;14.30;87.10
19496;DHT22;9888;48.606;9.630;2023-04-06T09:35:56;13.20;84.00
19496;DHT22;9888;48.606;9.630;2023-04-06T09:38:26;12.70;91.30
19496;DHT22;9888;48.606;9.630;2023-04-06T09:40:53;12.80;91.80
19496;DHT22;9888;48.606;9.630;2023-04-06T09:43:30;11.90;85.90
19496;DHT22;9888;48.606;9.630;2023-04-06T09:46:17;11.90;91.90
19496;DHT22;9888;48.606;9.630;2023-04-06T09:48:55;11.80;90.30
19496;DHT22;9888;48.606;9.630;2023-04-06T09:51:34;11.70;89.60
19496;DHT22;9888;48.606;9.630;2023-04-06T09:54:07;11.60;90.80
19496;DHT22;9888;48.606;9.630;2023-04-06T09:56:54;11.80;88.60
19496;DHT22;9888;48.606;9.630;2023-04-06T09:59:56;11.90;83.30
19496;DHT22;9888;48.606;9.630;2023-04-06T10:02:39;12.00;91.10
19496;DHT22;9888;48.606;9.630;2023-04-06T10:07:51;12.40;90.10
19496;DHT22;9888;48.606;9.630;2023-04-06T10:10:25;12.40;91.60
19496;DHT22;9888;48.606;9.630;2023-04-06T10:12:54;12.70;91.20
19496;DHT22;9888;48.606;9.630;2023-04-06T10:15:26;13.10;91.60
19496;DHT22;9888;48.606;9.630;2023-04-06T10:18:03;13.50;90.90
19496;DHT22;9888;48.606;9.630;2023-04-06T10:23:19;14.00;87.00
19496;DHT22;9888;48.606;9.630;2023-04-06T10:25:59;14.20;90.20
19496;DHT22;9888;48.606;9.630;2023-04-06T10:28:40;13.70;86.30
19496;DHT22;9888;48.606;9.630;2023-04-06T10:31:23;13.40;86.00
19496;DHT22;9888;48.606;9.630;2023-04-06T10:34:01;13.60;88.90
19496;DHT22;9888;48.606;9.630;2023-04-06T10:36:37;13.80;88.50
19496;DHT22;9888;48.606;9.630;2023-04-06T10:39:06;13.80;86.30
19496;DHT22;9888;48.606;9.630;2023-04-06T10:41:41;13.40;84.80
19496;DHT22;9888;48.606;9.630;2023-04-06T10:44:22;13.10;82.70
19496;DHT22;9888;48.606;9.630;2023-04-06T10:46:59;12.80;85.00
19496;DHT22;9888;48.606;9.630;2023-04-06T10:49:29;12.60;82.20
19496;DHT22;9888;48.606;9.630;2023-04-06T10:51:58;12.70;85.50
19496;DHT22;9888;48.606;9.630;2023-04-06T10:54:29;12.60;82.40
19496;DHT22;9888;48.606;9.630;2023-04-06T10:56:59;12.40;82.50
19496;DHT22;9888;48.606;9.630;2023-04-06T10:59:29;11.60;85.00
19496;DHT22;9888;48.606;9.630;2023-04-06T11:02:20;11.50;87.20
19496;DHT22;9888;48.606;9.630;2023-04-06T11:05:04;11.00;85.90
19496;DHT22;9888;48.606;9.630;2023-04-06T11:07:39;10.80;88.10
19496;DHT22;9888;48.606;9.630;2023-04-06T11:10:10;9.90;87.30
19496;DHT22;9888;48.606;9.630;2023-04-06T11:12:45;10.20;90.00
19496;DHT22;9888;48.606;9.630;2023-04-06T11:15:22;12.80;89.00
19496;DHT22;9888;48.606;9.630;2023-04-06T11:17:52;13.30;87.70
19496;DHT22;9888;48.606;9.630;2023-04-06T11:20:23;15.60;87.50
19496;DHT22;9888;48.606;9.630;2023-04-06T11:23:09;19.20;86.00
19496;DHT22;9888;48.606;9.630;2023-04-06T11:26:19;21.40;83.70
19496;DHT22;9888;48.606;9.630;2023-04-06T11:32:23;25.60;70.80
19496;DHT22;9888;48.606;9.630;2023-04-06T11:34:54;26.90;65.60
19496;DHT22;9888;48.606;9.630;2023-04-06T11:37:27;26.80;58.20
19496;DHT22;9888;48.606;9.630;2023-04-06T11:39:55;26.50;55.90
19496;DHT22;9888;48.606;9.630;2023-04-06T11:42:28;25.50;60.40
19496;DHT22;9888;48.606;9.630;2023-04-06T11:44:59;25.30;59.10
19496;DHT22;9888;48.606;9.630;2023-04-06T11:47:38;24.50;56.90
19496;DHT22;9888;48.606;9.630;2023-04-06T11:50:12;23.00;61.20
19496;DHT22;9888;48.606;9.630;2023-04-06T11:52:42;23.70;55.50
19496;DHT22;9888;48.606;9.630;2023-04-06T11:55:17;24.40;57.00
19496;DHT22;9888;48.606;9.630;2023-04-06T11:57:46;24.50;54.40
19496;DHT22;9888;48.606;9.630;2023-04-06T12:00:16;24.10;59.00
19496;DHT22;9888;48.606;9.630;2023-04-06T12:02:48;22.10;54.30
19496;DHT22;9888;48.606;9.630;2023-04-06T12:05:16;20.30;54.90
19496;DHT22;9888;48.606;9.630;2023-04-06T12:07:47;21.10;63.30
19496;DHT22;9888;48.606;9.630;2023-04-06T12:10:15;20.80;58.30
19496;DHT22;9888;48.606;9.630;2023-04-06T12:12:43;21.10;61.10
19496;DHT22;9888;48.606;9.630;2023-04-06T12:15:12;22.40;58.60
19496;DHT22;9888;48.606;9.630;2023-04-06T12:17:40;24.10;57.90
19496;DHT22;9888;48.606;9.630;2023-04-06T12:20:08;25.20;56.90
19496;DHT22;9888;48.606;9.630;2023-04-06T12:22:37;25.90;55.30
19496;DHT22;9888;48.606;9.630;2023-04-06T12:25:06;23.60;52.20
19496;DHT22;9888;48.606;9.630;2023-04-06T12:27:36;23.50;58.80
19496;DHT22;9888;48.606;9.630;2023-04-06T12:30:07;24.40;57.30
19496;DHT22;9888;48.606;9.630;2023-04-06T12:32:36;25.20;53.40
19496;DHT22;9888;48.606;9.630;2023-04-06T12:35:10;25.10;58.50
19496;DHT22;9888;48.606;9.630;2023-04-06T12:37:42;24.90;54.00
19496;DHT22;9888;48.606;9.630;2023-04-06T12:43:43;24.40;54.60
19496;DHT22;9888;48.606;9.630;2023-04-06T12:46:14;25.30;59.30
19496;DHT22;9888;48.606;9.630;2023-04-06T12:48:46;25.40;56.40
19496;DHT22;9888;48.606;9.630;2023-04-06T12:51:14;25.60;54.60
19496;DHT22;9888;48.606;9.630;2023-04-06T12:53:44;25.80;54.40
19496;DHT22;9888;48.606;9.630;2023-04-06T12:56:16;24.20;53.70
19496;DHT22;9888;48.606;9.630;2023-04-06T12:58:54;22.60;54.00
19496;DHT22;9888;48.606;9.630;2023-04-06T13:01:25;20.90;52.80
19496;DHT22;9888;48.606;9.630;2023-04-06T13:03:57;19.80;57.20
19496;DHT22;9888;48.606;9.630;2023-04-06T13:06:27;20.00;56.10
19496;DHT22;9888;48.606;9.630;2023-04-06T13:09:03;19.90;59.50
19496;DHT22;9888;48.606;9.630;2023-04-06T13:11:35;20.60;62.20
19496;DHT22;9888;48.606;9.630;2023-04-06T13:14:08;21.60;56.90
19496;DHT22;9888;48.606;9.630;2023-04-06T13:16:44;21.90;57.50
19496;DHT22;9888;48.606;9.630;2023-04-06T13:19:12;23.10;57.90
19496;DHT22;9888;48.606;9.630;2023-04-06T13:21:40;24.30;59.30
19496;DHT22;9888;48.606;9.630;2023-04-06T13:24:09;24.90;57.50
19496;DHT22;9888;48.606;9.630;2023-04-06T13:26:42;26.30;55.00
19496;DHT22;9888;48.606;9.630;2023-04-06T13:29:11;26.50;55.70
19496;DHT22;9888;48.606;9.630;2023-04-06T13:31:43;26.70;50.60
19496;DHT22;9888;48.606;9.630;2023-04-06T13:34:16;24.90;50.50
19496;DHT22;9888;48.606;9.630;2023-04-06T13:37:03;24.60;54.50
19496;DHT22;9888;48.606;9.630;2023-04-06T13:39:41;24.90;55.10
19496;DHT22;9888;48.606;9.630;2023-04-06T13:42:21;25.10;54.70
19496;DHT22;9888;48.606;9.630;2023-04-06T13:44:52;25.30;54.90
19496;DHT22;9888;48.606;9.630;2023-04-06T13:47:23;25.00;53.10
19496;DHT22;9888;48.606;9.630;2023-04-06T13:49:53;24.50;52.00
19496;DHT22;9888;48.606;9.630;2023-04-06T13:52:24;23.90;51.10
19496;DHT22;9888;48.606;9.630;2023-04-06T13:55:01;24.70;51.20
19496;DHT22;9888;48.606;9.630;2023-04-06T13:57:30;25.80;52.10
19496;DHT22;9888;48.606;9.630;2023-04-06T14:00:00;26.40;51.50
19496;DHT22;9888;48.606;9.630;2023-04-06T22:12:36;6.30;99.90
19496;DHT22;9888;48.606;9.630;2023-04-06T22:15:06;6.30;99.90
19496;DHT22;9888;48.606;9.630;2023-04-06T22:17:37;6.20;99.90
19496;DHT22;9888;48.606;9.630;2023-04-06T22:20:04;6.20;99.90
19496;DHT22;9888;48.606;9.630;2023-04-06T22:22:32;6.20;99.90
19496;DHT22;9888;48.606;9.630;2023-04-06T22:24:59;6.20;99.90
19496;DHT22;9888;48.606;9.630;2023-04-06T22:27:27;6.20;99.90
19496;DHT22;9888;48.606;9.630;2023-04-06T22:29:53;6.10;99.90
19496;DHT22;9888;48.606;9.630;2023-04-06T22:32:21;6.10;99.90
19496;DHT22;9888;48.606;9.630;2023-04-06T22:34:48;6.10;99.90
19496;DHT22;9888;48.606;9.630;2023-04-06T22:37:15;6.00;99.90
19496;DHT22;9888;48.606;9.630;2023-04-06T22:39:43;6.00;99.90
19496;DHT22;9888;48.606;9.630;2023-04-06T22:42:11;5.90;99.90
19496;DHT22;9888;48.606;9.630;2023-04-06T22:44:38;5.90;99.90
19496;DHT22;9888;48.606;9.630;2023-04-06T22:47:05;5.80;99.90
19496;DHT22;9888;48.606;9.630;2023-04-06T22:49:33;5.80;99.90
19496;DHT22;9888;48.606;9.630;2023-04-06T22:52:00;5.70;99.90
19496;DHT22;9888;48.606;9.630;2023-04-06T22:54:28;5.60;99.90
19496;DHT22;9888;48.606;9.630;2023-04-06T22:56:56;5.50;99.90
19496;DHT22;9888;48.606;9.630;2023-04-06T22:59:23;5.50;99.90
19496;DHT22;9888;48.606;9.630;2023-04-06T23:01:50;5.50;99.90
19496;DHT22;9888;48.606;9.630;2023-04-06T23:04:16;5.40;99.90
19496;DHT22;9888;48.606;9.630;2023-04-06T23:06:43;5.30;99.90
19496;DHT22;9888;48.606;9.630;2023-04-06T23:09:10;5.30;99.90
19496;DHT22;9888;48.606;9.630;2023-04-06T23:11:37;5.30;99.90
19496;DHT22;9888;48.606;9.630;2023-04-06T23:14:04;5.30;99.90
19496;DHT22;9888;48.606;9.630;2023-04-06T23:16:31;5.30;99.90
19496;DHT22;9888;48.606;9.630;2023-04-06T23:18:58;5.30;99.90
19496;DHT22;9888;48.606;9.630;2023-04-06T23:21:25;5.20;99.90
19496;DHT22;9888;48.606;9.630;2023-04-06T23:23:52;5.20;99.90
19496;DHT22;9888;48.606;9.630;2023-04-06T23:26:20;5.10;99.90
19496;DHT22;9888;48.606;9.630;2023-04-06T23:28:47;5.10;99.90
19496;DHT22;9888;48.606;9.630;2023-04-06T23:31:14;5.10;99.90
19496;DHT22;9888;48.606;9.630;2023-04-06T23:33:41;5.00;99.90
19496;DHT22;9888;48.606;9.630;2023-04-06T23:36:08;5.00;99.90
19496;DHT22;9888;48.606;9.630;2023-04-06T23:38:35;5.00;99.90
19496;DHT22;9888;48.606;9.630;2023-04-06T23:41:02;4.90;99.90
19496;DHT22;9888;48.606;9.630;2023-04-06T23:43:29;4.90;99.90
19496;DHT22;9888;48.606;9.630;2023-04-06T23:45:56;4.90;99.90
19496;DHT22;9888;48.606;9.630;2023-04-06T23:48:23;4.90;99.90
19496;DHT22;9888;48.606;9.630;2023-04-06T23:50:50;4.90;99.90
19496;DHT22;9888;48.606;9.630;2023-04-06T23:53:17;4.80;99.90
19496;DHT22;9888;48.606;9.630;2023-04-06T23:55:44;4.80;99.90
19496;DHT22;9888;48.606;9.630;2023-04-06T23:58:11;4.80;99.90
